createdAt,value
2023-12-15T00:01:06.110Z,5.05
2023-12-15T00:03:32.803Z,5.00
2023-12-15T00:05:59.492Z,5.01
2023-12-15T00:08:27.616Z,5.01
2023-12-15T00:10:54.277Z,5.10
2023-12-15T00:13:20.923Z,4.97
2023-12-15T00:15:47.482Z,4.98
2023-12-15T00:18:14.358Z,4.96
2023-12-15T00:20:41.170Z,4.96
2023-12-15T00:23:07.870Z,5.02
2023-12-15T00:25:34.517Z,5.06
2023-12-15T00:28:01.169Z,5.07
2023-12-15T00:30:27.793Z,5.13
2023-12-15T00:32:54.444Z,5.06
2023-12-15T00:35:21.270Z,4.97
2023-12-15T00:37:47.862Z,4.94
2023-12-15T00:40:14.540Z,5.03
2023-12-15T00:42:41.184Z,4.89
2023-12-15T00:45:08.414Z,4.92
2023-12-15T00:47:35.498Z,4.92
2023-12-15T00:50:02.557Z,4.99
2023-12-15T00:52:29.144Z,4.96
2023-12-15T00:54:55.807Z,4.91
2023-12-15T00:57:22.468Z,4.82
2023-12-15T00:59:50.036Z,4.95
2023-12-15T01:02:16.694Z,5.00
2023-12-15T01:04:43.295Z,4.95
2023-12-15T01:07:09.863Z,4.89
2023-12-15T01:09:37.592Z,4.90
2023-12-15T01:12:04.721Z,4.95
2023-12-15T01:14:31.408Z,4.98
2023-12-15T01:16:58.120Z,4.93
2023-12-15T01:19:24.788Z,4.91
2023-12-15T01:21:51.409Z,4.86
2023-12-15T01:24:18.006Z,4.86
2023-12-15T01:26:44.634Z,4.80
2023-12-15T01:29:11.327Z,4.75
2023-12-15T01:31:37.977Z,4.74
2023-12-15T01:34:04.731Z,4.77
2023-12-15T01:36:31.394Z,4.76
2023-12-15T01:38:58.053Z,4.82
2023-12-15T01:41:24.831Z,4.83
2023-12-15T01:43:51.492Z,4.81
2023-12-15T01:46:18.183Z,4.78
2023-12-15T01:48:45.017Z,4.70
2023-12-15T01:51:11.684Z,4.78
2023-12-15T01:53:38.271Z,4.80
2023-12-15T01:56:05.337Z,4.68
2023-12-15T01:58:31.938Z,4.75
2023-12-15T02:00:58.906Z,4.70
2023-12-15T02:03:25.583Z,4.72
2023-12-15T02:05:52.310Z,4.66
2023-12-15T02:08:19.013Z,4.68
2023-12-15T02:10:45.880Z,4.68
2023-12-15T02:13:12.452Z,4.70
2023-12-15T02:15:39.083Z,4.68
2023-12-15T02:18:05.839Z,4.72
2023-12-15T02:20:32.526Z,4.68
2023-12-15T02:23:00.538Z,4.65
2023-12-15T02:25:27.398Z,4.70
2023-12-15T02:27:54.907Z,4.70
2023-12-15T02:30:21.546Z,4.65
2023-12-15T02:32:48.316Z,4.63
2023-12-15T02:35:15.635Z,4.64
2023-12-15T02:37:42.402Z,4.58
2023-12-15T02:40:09.415Z,4.64
2023-12-15T02:42:35.986Z,4.63
2023-12-15T02:45:02.623Z,4.66
2023-12-15T02:47:30.141Z,4.67
2023-12-15T02:49:56.987Z,4.62
2023-12-15T02:52:23.617Z,4.67
2023-12-15T02:54:50.251Z,4.62
2023-12-15T02:57:16.817Z,4.59
2023-12-15T02:59:43.629Z,4.65
2023-12-15T03:02:10.537Z,4.57
2023-12-15T03:04:37.141Z,4.54
2023-12-15T03:07:04.291Z,4.61
2023-12-15T03:09:30.903Z,4.63
2023-12-15T03:11:58.027Z,4.54
2023-12-15T03:14:24.665Z,4.56
2023-12-15T03:16:51.429Z,4.53
2023-12-15T03:19:18.159Z,4.51
2023-12-15T03:21:44.764Z,4.53
2023-12-15T03:24:11.373Z,4.58
2023-12-15T03:26:37.967Z,4.57
2023-12-15T03:29:04.685Z,4.55
2023-12-15T03:31:31.294Z,4.57
2023-12-15T03:33:57.923Z,4.55
2023-12-15T03:36:27.590Z,4.54
2023-12-15T03:38:54.303Z,4.53
2023-12-15T03:41:20.891Z,4.57
2023-12-15T03:43:47.463Z,4.52
2023-12-15T03:46:14.174Z,4.51
2023-12-15T03:48:40.804Z,4.57
2023-12-15T03:51:07.562Z,4.46
2023-12-15T03:53:34.197Z,4.46
2023-12-15T03:56:00.937Z,4.48
2023-12-15T03:58:27.545Z,4.45
2023-12-15T04:00:54.204Z,4.45
2023-12-15T04:03:20.937Z,4.20
2023-12-15T04:05:47.632Z,4.21
2023-12-15T04:08:14.475Z,4.09
2023-12-15T04:10:41.089Z,4.21
2023-12-15T04:13:07.864Z,4.24
2023-12-15T04:15:34.508Z,4.15
2023-12-15T04:18:05.613Z,4.12
2023-12-15T04:20:32.624Z,4.13
2023-12-15T04:22:59.911Z,4.09
2023-12-15T04:25:26.512Z,3.99
2023-12-15T04:27:53.190Z,4.04
2023-12-15T04:30:19.904Z,3.90
2023-12-15T04:32:46.537Z,3.88
2023-12-15T04:35:13.218Z,3.88
2023-12-15T04:37:39.828Z,3.88
2023-12-15T04:40:06.819Z,3.94
2023-12-15T04:42:33.399Z,4.00
2023-12-15T04:45:00.042Z,4.03
2023-12-15T04:47:26.664Z,4.10
2023-12-15T04:49:53.272Z,3.95
2023-12-15T04:52:19.949Z,4.09
2023-12-15T04:54:46.508Z,4.09
2023-12-15T04:57:13.074Z,4.06
2023-12-15T04:59:42.275Z,4.19
2023-12-15T05:02:09.348Z,4.14
2023-12-15T05:04:38.433Z,4.19
2023-12-15T05:07:05.837Z,4.17
2023-12-15T05:09:32.438Z,4.13
2023-12-15T05:11:59.031Z,4.14
2023-12-15T05:14:25.701Z,4.15
2023-12-15T05:16:52.284Z,4.13
2023-12-15T05:19:18.917Z,4.05
2023-12-15T05:21:45.677Z,4.07
2023-12-15T05:24:12.307Z,4.06
2023-12-15T05:26:38.932Z,3.98
2023-12-15T05:29:05.876Z,4.08
2023-12-15T05:31:32.511Z,4.08
2023-12-15T05:33:59.175Z,4.13
2023-12-15T05:36:25.885Z,4.05
2023-12-15T05:38:54.113Z,4.08
2023-12-15T05:41:21.009Z,4.10
2023-12-15T05:43:47.744Z,4.05
2023-12-15T05:46:15.754Z,4.04
2023-12-15T05:48:42.452Z,3.99
2023-12-15T05:51:09.241Z,4.00
2023-12-15T05:53:48.454Z,4.00
2023-12-15T05:56:22.071Z,3.94
2023-12-15T05:58:49.918Z,3.96
2023-12-15T06:01:16.733Z,3.89
2023-12-15T06:03:43.424Z,3.80
2023-12-15T06:06:13.628Z,3.78
2023-12-15T06:08:42.814Z,3.71
2023-12-15T06:11:09.470Z,3.64
2023-12-15T06:13:36.110Z,3.60
2023-12-15T06:16:03.050Z,3.62
2023-12-15T06:18:29.827Z,3.52
2023-12-15T06:20:56.554Z,3.40
2023-12-15T06:23:23.209Z,3.24
2023-12-15T06:25:49.847Z,3.29
2023-12-15T06:28:16.417Z,3.30
2023-12-15T06:30:43.127Z,3.31
2023-12-15T06:33:09.928Z,3.34
2023-12-15T06:35:36.689Z,3.29
2023-12-15T06:38:03.360Z,3.22
2023-12-15T06:40:30.050Z,3.12
2023-12-15T06:42:56.769Z,2.76
2023-12-15T06:45:23.364Z,2.85
2023-12-15T06:47:53.275Z,2.80
2023-12-15T06:50:20.070Z,2.80
2023-12-15T06:52:50.296Z,2.75
2023-12-15T06:55:16.987Z,2.75
2023-12-15T06:57:43.563Z,2.81
2023-12-15T07:00:11.174Z,2.78
2023-12-15T07:02:37.853Z,2.84
2023-12-15T07:05:04.898Z,2.92
2023-12-15T07:07:31.656Z,2.83
2023-12-15T07:09:58.337Z,2.84
2023-12-15T07:12:24.920Z,2.79
2023-12-15T07:14:51.487Z,2.77
2023-12-15T07:17:18.107Z,2.77
2023-12-15T07:19:44.911Z,2.78
2023-12-15T07:22:11.514Z,2.76
2023-12-15T07:24:38.091Z,2.80
2023-12-15T07:27:05.766Z,2.82
2023-12-15T07:29:32.452Z,2.68
2023-12-15T07:31:59.266Z,2.52
2023-12-15T07:34:25.991Z,2.57
2023-12-15T07:36:52.706Z,2.56
2023-12-15T07:39:22.439Z,2.68
2023-12-15T07:41:49.742Z,2.77
2023-12-15T07:44:17.044Z,2.76
2023-12-15T07:46:45.081Z,2.79
2023-12-15T07:49:12.040Z,2.67
2023-12-15T07:51:38.724Z,2.73
2023-12-15T07:54:05.598Z,2.75
2023-12-15T07:56:32.292Z,2.74
2023-12-15T07:58:58.877Z,2.61
2023-12-15T08:01:25.877Z,2.56
2023-12-15T08:03:52.589Z,2.71
2023-12-15T08:06:19.814Z,2.71
2023-12-15T08:08:48.268Z,2.61
2023-12-15T08:11:15.005Z,2.61
2023-12-15T08:13:42.405Z,2.60
2023-12-15T08:16:14.058Z,2.62
2023-12-15T08:18:45.179Z,2.66
2023-12-15T08:21:12.616Z,2.69
2023-12-15T08:23:39.397Z,2.69
2023-12-15T08:26:06.265Z,2.71
2023-12-15T08:28:32.956Z,2.72
2023-12-15T08:31:00.194Z,2.79
2023-12-15T08:33:28.734Z,2.78
2023-12-15T08:35:55.592Z,2.81
2023-12-15T08:38:22.257Z,2.86
2023-12-15T08:40:48.949Z,2.88
2023-12-15T08:43:15.605Z,2.89
2023-12-15T08:45:42.208Z,2.91
2023-12-15T08:48:09.539Z,2.91
2023-12-15T08:50:36.438Z,2.96
2023-12-15T08:53:03.611Z,3.05
2023-12-15T08:55:30.649Z,3.06
2023-12-15T08:57:57.426Z,3.19
2023-12-15T09:00:24.725Z,3.23
2023-12-15T09:02:53.744Z,3.21
2023-12-15T09:05:38.764Z,3.13
2023-12-15T09:08:11.562Z,3.13
2023-12-15T09:10:43.468Z,3.24
2023-12-15T09:13:10.963Z,3.33
2023-12-15T09:15:37.565Z,3.26
2023-12-15T09:18:04.693Z,3.22
2023-12-15T09:20:31.949Z,3.18
2023-12-15T09:22:58.606Z,3.09
2023-12-15T09:25:25.255Z,3.13
2023-12-15T09:27:51.957Z,3.10
2023-12-15T09:30:18.684Z,3.11
2023-12-15T09:32:45.525Z,3.05
2023-12-15T09:35:12.212Z,3.08
2023-12-15T09:37:39.012Z,3.03
2023-12-15T09:40:06.474Z,3.02
2023-12-15T09:42:33.088Z,2.98
2023-12-15T09:45:06.752Z,3.02
2023-12-15T09:47:37.525Z,2.99
2023-12-15T09:50:06.938Z,3.03
2023-12-15T09:52:35.647Z,3.07
2023-12-15T09:55:03.558Z,3.00
2023-12-15T09:57:30.950Z,3.18
2023-12-15T09:59:58.373Z,3.24
2023-12-15T10:02:26.472Z,3.30
2023-12-15T10:04:54.045Z,3.31
2023-12-15T10:07:20.663Z,3.19
2023-12-15T10:09:48.175Z,3.02
2023-12-15T10:12:14.731Z,3.18
2023-12-15T10:14:41.434Z,3.04
2023-12-15T10:17:12.020Z,3.31
2023-12-15T10:19:39.156Z,3.48
2023-12-15T10:22:07.048Z,3.52
2023-12-15T10:24:35.074Z,3.49
2023-12-15T10:27:03.732Z,3.47
2023-12-15T10:29:31.035Z,3.41
2023-12-15T10:31:59.153Z,3.37
2023-12-15T10:34:27.884Z,3.12
2023-12-15T10:36:55.352Z,3.20
2023-12-15T10:39:23.388Z,3.19
2023-12-15T10:41:52.974Z,3.15
2023-12-15T10:44:22.119Z,3.14
2023-12-15T10:46:49.387Z,3.20
2023-12-15T10:49:16.810Z,3.10
2023-12-15T10:51:44.563Z,3.18
2023-12-15T10:54:11.298Z,3.18
2023-12-15T10:56:39.269Z,3.10
2023-12-15T10:59:07.033Z,3.04
2023-12-15T11:01:36.967Z,3.08
2023-12-15T11:04:17.454Z,3.04
2023-12-15T11:06:44.342Z,3.31
2023-12-15T11:09:11.685Z,3.35
2023-12-15T11:11:39.168Z,3.16
2023-12-15T11:14:05.992Z,3.15
2023-12-15T11:16:36.688Z,3.26
2023-12-15T11:19:03.923Z,3.38
2023-12-15T11:21:31.328Z,3.35
2023-12-15T11:24:00.876Z,3.56
2023-12-15T11:26:30.886Z,3.46
2023-12-15T11:29:03.772Z,3.55
2023-12-15T11:31:31.806Z,3.65
2023-12-15T11:33:58.493Z,3.55
2023-12-15T11:36:29.063Z,3.31
2023-12-15T11:38:55.829Z,3.26
2023-12-15T11:41:24.315Z,3.17
2023-12-15T11:43:52.075Z,3.22
2023-12-15T11:46:22.428Z,3.14
2023-12-15T11:48:49.183Z,3.21
2023-12-15T11:51:16.139Z,3.17
2023-12-15T11:53:43.904Z,3.06
2023-12-15T11:56:11.401Z,3.18
2023-12-15T11:58:38.859Z,3.17
2023-12-15T12:01:06.249Z,3.22
2023-12-15T12:03:32.996Z,3.06
2023-12-15T12:06:00.373Z,3.23
2023-12-15T12:08:27.161Z,3.22
2023-12-15T12:11:01.602Z,3.31
2023-12-15T12:13:37.358Z,3.52
2023-12-15T12:16:05.137Z,3.49
2023-12-15T12:18:32.790Z,3.52
2023-12-15T12:21:05.347Z,3.63
2023-12-15T12:23:41.764Z,3.40
2023-12-15T12:26:13.111Z,3.44
2023-12-15T12:28:46.657Z,3.59
2023-12-15T12:31:13.888Z,3.60
2023-12-15T12:33:40.537Z,3.59
2023-12-15T12:36:08.889Z,3.55
2023-12-15T12:38:38.643Z,3.55
2023-12-15T12:41:07.411Z,3.56
2023-12-15T12:43:34.821Z,3.69
2023-12-15T12:46:01.761Z,3.71
2023-12-15T12:48:29.860Z,3.54
2023-12-15T12:50:56.806Z,3.62
2023-12-15T12:53:23.502Z,3.72
2023-12-15T12:55:50.109Z,3.85
2023-12-15T12:58:18.050Z,3.93
2023-12-15T13:00:44.782Z,3.86
2023-12-15T13:03:11.826Z,3.85
2023-12-15T13:05:38.674Z,3.78
2023-12-15T13:08:05.483Z,3.73
2023-12-15T13:10:32.135Z,3.67
2023-12-15T13:12:58.694Z,3.67
2023-12-15T13:15:25.468Z,3.51
2023-12-15T13:17:55.111Z,3.51
2023-12-15T13:20:25.946Z,3.49
2023-12-15T13:22:52.782Z,3.55
2023-12-15T13:25:19.711Z,3.70
2023-12-15T13:27:49.368Z,3.73
2023-12-15T13:30:16.545Z,3.69
2023-12-15T13:32:43.484Z,3.68
2023-12-15T13:35:10.727Z,3.56
2023-12-15T13:37:37.510Z,3.56
2023-12-15T13:40:05.362Z,3.55
2023-12-15T13:42:32.099Z,3.54
2023-12-15T13:44:58.823Z,3.48
2023-12-15T13:47:25.901Z,3.61
2023-12-15T13:49:52.689Z,3.49
2023-12-15T13:52:20.725Z,3.57
2023-12-15T13:54:47.624Z,3.66
2023-12-15T13:57:18.443Z,3.78
2023-12-15T13:59:45.151Z,3.74
2023-12-15T14:02:12.224Z,3.78
2023-12-15T14:04:38.807Z,3.74
2023-12-15T14:07:05.819Z,3.75
2023-12-15T14:09:32.757Z,3.81
2023-12-15T14:11:59.370Z,3.78
2023-12-15T14:14:26.225Z,3.81
2023-12-15T14:16:54.035Z,3.90
2023-12-15T14:19:20.782Z,3.92
2023-12-15T14:21:48.641Z,3.78
2023-12-15T14:24:19.550Z,3.84
2023-12-15T14:26:46.659Z,3.92
2023-12-15T14:29:13.628Z,3.92
2023-12-15T14:31:40.379Z,3.88
2023-12-15T14:34:07.283Z,3.85
2023-12-15T14:36:34.157Z,3.80
2023-12-15T14:39:00.936Z,3.73
2023-12-15T14:41:28.501Z,3.68
2023-12-15T14:43:55.390Z,3.74
2023-12-15T14:46:22.056Z,3.66
2023-12-15T14:48:49.190Z,3.68
2023-12-15T14:51:16.436Z,3.75
2023-12-15T14:53:43.174Z,3.65
2023-12-15T14:56:12.356Z,3.66
2023-12-15T14:58:40.795Z,3.65
2023-12-15T15:01:08.232Z,3.59
2023-12-15T15:03:35.343Z,3.58
2023-12-15T15:06:02.739Z,3.66
2023-12-15T15:08:33.488Z,3.65
2023-12-15T15:11:00.250Z,3.58
2023-12-15T15:13:27.152Z,3.46
2023-12-15T15:15:53.840Z,3.42
2023-12-15T15:18:22.218Z,3.45
2023-12-15T15:20:49.261Z,3.49
2023-12-15T15:23:16.113Z,3.51
2023-12-15T15:25:42.928Z,3.51
2023-12-15T15:28:09.635Z,3.51
2023-12-15T15:30:37.750Z,3.41
2023-12-15T15:33:04.549Z,3.40
2023-12-15T15:35:32.208Z,3.32
2023-12-15T15:38:00.143Z,3.30
2023-12-15T15:40:27.053Z,3.40
2023-12-15T15:42:53.811Z,3.43
2023-12-15T15:45:20.953Z,3.42
2023-12-15T15:47:48.833Z,3.38
2023-12-15T15:50:15.678Z,3.29
2023-12-15T15:52:42.332Z,3.30
2023-12-15T15:55:09.617Z,3.29
2023-12-15T15:57:37.427Z,3.36
2023-12-15T16:00:05.603Z,3.34
2023-12-15T16:02:32.489Z,3.39
2023-12-15T16:04:59.861Z,3.44
2023-12-15T16:07:26.573Z,3.44
2023-12-15T16:09:53.435Z,3.37
2023-12-15T16:12:20.780Z,3.43
2023-12-15T16:14:47.407Z,3.44
2023-12-15T16:17:13.998Z,3.38
2023-12-15T16:19:40.802Z,3.38
2023-12-15T16:22:07.717Z,3.44
2023-12-15T16:24:34.439Z,3.32
2023-12-15T16:27:01.051Z,3.35
2023-12-15T16:29:27.735Z,3.39
2023-12-15T16:31:54.855Z,3.41
2023-12-15T16:34:21.882Z,3.42
2023-12-15T16:36:48.606Z,3.41
2023-12-15T16:39:15.469Z,3.43
2023-12-15T16:41:42.394Z,3.46
2023-12-15T16:44:09.003Z,3.47
2023-12-15T16:46:36.353Z,3.50
2023-12-15T16:49:05.076Z,3.44
2023-12-15T16:51:36.949Z,3.47
2023-12-15T16:54:04.372Z,3.43
2023-12-15T16:56:31.320Z,3.45
2023-12-15T16:58:57.979Z,3.50
2023-12-15T17:01:25.378Z,3.46
2023-12-15T17:03:52.352Z,3.46
2023-12-15T17:06:19.006Z,3.49
2023-12-15T17:08:45.798Z,3.47
2023-12-15T17:11:13.376Z,3.51
2023-12-15T17:13:40.703Z,3.51
2023-12-15T17:16:14.063Z,3.44
2023-12-15T17:18:41.028Z,3.45
2023-12-15T17:21:13.093Z,3.43
2023-12-15T17:23:45.900Z,3.54
2023-12-15T17:26:17.748Z,3.68
2023-12-15T17:28:45.261Z,3.69
2023-12-15T17:31:12.247Z,3.66
2023-12-15T17:33:39.167Z,3.66
2023-12-15T17:36:06.014Z,3.58
2023-12-15T17:38:32.708Z,3.54
2023-12-15T17:40:59.370Z,3.48
2023-12-15T17:43:25.998Z,3.39
2023-12-15T17:45:53.094Z,3.43
2023-12-15T17:48:21.628Z,3.39
2023-12-15T17:50:49.528Z,3.42
2023-12-15T17:53:16.504Z,3.40
2023-12-15T17:55:43.802Z,3.43
2023-12-15T17:58:12.677Z,3.51
2023-12-15T18:00:43.298Z,3.48
2023-12-15T18:03:11.012Z,3.57
2023-12-15T18:05:37.752Z,3.59
2023-12-15T18:08:04.650Z,3.61
2023-12-15T18:10:31.489Z,3.57
2023-12-15T18:12:58.211Z,3.53
2023-12-15T18:15:25.063Z,3.58
2023-12-15T18:17:51.763Z,3.64
2023-12-15T18:20:19.488Z,3.61
2023-12-15T18:22:46.942Z,3.60
2023-12-15T18:25:16.305Z,3.58
2023-12-15T18:27:43.680Z,3.56
2023-12-15T18:30:11.293Z,3.55
2023-12-15T18:32:38.343Z,3.53
2023-12-15T18:35:05.849Z,3.51
2023-12-15T18:37:32.603Z,3.53
2023-12-15T18:39:59.339Z,3.57
2023-12-15T18:42:26.150Z,3.67
2023-12-15T18:44:52.857Z,3.63
2023-12-15T18:47:19.467Z,3.60
2023-12-15T18:49:46.471Z,3.55
2023-12-15T18:52:14.418Z,3.56
2023-12-15T18:54:41.049Z,3.59
2023-12-15T18:57:07.628Z,3.60
2023-12-15T18:59:34.286Z,3.58
2023-12-15T19:02:01.126Z,3.66
2023-12-15T19:04:28.861Z,3.67
2023-12-15T19:06:55.621Z,3.71
2023-12-15T19:09:22.202Z,3.81
2023-12-15T19:11:48.807Z,3.79
2023-12-15T19:14:15.962Z,3.90
2023-12-15T19:16:42.597Z,3.84
2023-12-15T19:19:10.360Z,3.91
2023-12-15T19:21:37.185Z,3.88
2023-12-15T19:24:06.317Z,3.87
2023-12-15T19:26:32.924Z,3.79
2023-12-15T19:29:01.456Z,3.80
2023-12-15T19:31:28.576Z,3.79
2023-12-15T19:33:56.283Z,3.78
2023-12-15T19:36:23.245Z,3.86
2023-12-15T19:38:49.959Z,3.91
2023-12-15T19:41:19.724Z,3.89
2023-12-15T19:43:47.481Z,3.91
2023-12-15T19:46:21.820Z,3.88
2023-12-15T19:48:48.674Z,3.84
2023-12-15T19:51:19.616Z,3.92
2023-12-15T19:53:46.523Z,3.91
2023-12-15T19:56:23.153Z,3.90
2023-12-15T19:58:50.672Z,3.95
2023-12-15T20:01:27.497Z,3.95
2023-12-15T20:03:58.538Z,3.89
2023-12-15T20:06:28.742Z,3.87
2023-12-15T20:08:57.383Z,3.85
2023-12-15T20:11:24.322Z,3.80
2023-12-15T20:13:51.049Z,3.97
2023-12-15T20:16:17.974Z,3.97
2023-12-15T20:18:44.722Z,4.01
2023-12-15T20:21:11.419Z,3.96
2023-12-15T20:23:39.528Z,4.00
2023-12-15T20:26:09.967Z,3.96
2023-12-15T20:28:37.177Z,3.87
2023-12-15T20:31:07.506Z,3.91
2023-12-15T20:33:34.496Z,3.91
2023-12-15T20:36:01.238Z,3.92
2023-12-15T20:38:28.681Z,3.92
2023-12-15T20:40:56.621Z,3.92
2023-12-15T20:43:23.997Z,3.93
2023-12-15T20:45:50.873Z,3.89
2023-12-15T20:48:17.817Z,3.78
2023-12-15T20:50:44.947Z,3.85
2023-12-15T20:53:11.550Z,3.73
2023-12-15T20:55:38.288Z,3.86
2023-12-15T20:58:05.664Z,3.83
2023-12-15T21:00:34.926Z,3.78
2023-12-15T21:03:02.006Z,3.72
2023-12-15T21:05:30.107Z,3.72
2023-12-15T21:07:59.550Z,3.72
2023-12-15T21:10:26.299Z,3.73
2023-12-15T21:12:53.341Z,3.66
2023-12-15T21:15:20.761Z,3.64
2023-12-15T21:17:47.638Z,3.62
2023-12-15T21:20:14.631Z,3.61
2023-12-15T21:22:42.673Z,3.64
2023-12-15T21:25:09.521Z,3.62
2023-12-15T21:27:36.481Z,3.56
2023-12-15T21:30:04.766Z,3.56
2023-12-15T21:32:31.534Z,3.48
2023-12-15T21:34:58.243Z,3.51
2023-12-15T21:37:24.885Z,3.42
2023-12-15T21:39:51.573Z,3.39
2023-12-15T21:42:18.256Z,3.35
2023-12-15T21:44:44.954Z,3.40
2023-12-15T21:47:11.690Z,3.36
2023-12-15T21:49:42.304Z,3.41
2023-12-15T21:52:10.579Z,3.31
2023-12-15T21:54:37.213Z,3.33
2023-12-15T21:57:08.025Z,3.28
2023-12-15T21:59:35.126Z,3.19
2023-12-15T22:02:01.901Z,3.11
2023-12-15T22:04:28.725Z,3.23
2023-12-15T22:06:57.120Z,3.21
2023-12-15T22:09:23.748Z,3.23
2023-12-15T22:11:50.368Z,3.09
2023-12-15T22:14:17.822Z,3.18
2023-12-15T22:16:46.636Z,3.13
2023-12-15T22:19:13.342Z,3.16
2023-12-15T22:21:40.527Z,3.21
2023-12-15T22:24:07.401Z,3.12
2023-12-15T22:26:34.001Z,3.16
2023-12-15T22:29:00.597Z,3.10
2023-12-15T22:31:27.248Z,3.10
2023-12-15T22:33:54.074Z,3.23
2023-12-15T22:36:22.906Z,3.21
2023-12-15T22:38:49.951Z,3.20
2023-12-15T22:41:16.763Z,3.10
2023-12-15T22:43:43.361Z,3.07
2023-12-15T22:46:10.026Z,3.19
2023-12-15T22:48:36.688Z,3.14
2023-12-15T22:51:06.671Z,3.19
2023-12-15T22:53:36.365Z,3.28
2023-12-15T22:56:09.393Z,3.19
2023-12-15T22:58:36.801Z,3.14
2023-12-15T23:01:03.978Z,3.20
2023-12-15T23:03:30.781Z,3.11
2023-12-15T23:05:58.520Z,3.15
2023-12-15T23:08:26.809Z,3.12
2023-12-15T23:10:53.489Z,3.18
2023-12-15T23:13:20.151Z,3.17
2023-12-15T23:15:46.914Z,3.07
2023-12-15T23:18:13.943Z,3.04
2023-12-15T23:20:40.588Z,3.09
2023-12-15T23:23:07.160Z,3.05
2023-12-15T23:25:33.788Z,3.08
2023-12-15T23:28:00.956Z,3.14
2023-12-15T23:30:27.829Z,3.12
2023-12-15T23:32:54.548Z,3.13
2023-12-15T23:35:21.567Z,3.12
2023-12-15T23:37:48.128Z,3.11
2023-12-15T23:40:14.844Z,3.09
2023-12-15T23:42:41.587Z,3.14
2023-12-15T23:45:08.620Z,3.19
2023-12-15T23:47:35.505Z,3.25
2023-12-15T23:50:02.278Z,3.26
2023-12-15T23:52:28.901Z,3.24
2023-12-15T23:54:57.143Z,3.20
2023-12-15T23:57:23.858Z,3.15
2023-12-15T23:59:50.588Z,3.23
